sensor_id;sensor_type;location;lat;lon;timestamp;pressure;altitude;pressure_sealevel;temperature;humidity
51449;BME280;37520;46.570;14.268;2022-07-29T00:04:48;95833.16;;;17.22;81.50
51449;BME280;37520;46.570;14.268;2022-07-29T00:14:50;95825.22;;;17.12;81.40
51449;BME280;37520;46.570;14.268;2022-07-29T00:24:52;95823.16;;;17.03;82.64
51449;BME280;37520;46.570;14.268;2022-07-29T00:34:54;95829.38;;;16.94;82.97
51449;BME280;37520;46.570;14.268;2022-07-29T00:45:14;95827.00;;;16.82;84.09
51449;BME280;37520;46.570;14.268;2022-07-29T00:55:16;95826.00;;;16.72;84.40
51449;BME280;37520;46.570;14.268;2022-07-29T01:05:23;95831.41;;;16.62;85.21
51449;BME280;37520;46.570;14.268;2022-07-29T01:15:25;95824.00;;;16.54;85.69
51449;BME280;37520;46.570;14.268;2022-07-29T01:36:25;95802.25;;;16.31;86.30
51449;BME280;37520;46.570;14.268;2022-07-29T01:46:34;95790.81;;;16.20;86.80
51449;BME280;37520;46.570;14.268;2022-07-29T01:56:40;95790.28;;;16.18;87.49
51449;BME280;37520;46.570;14.268;2022-07-29T02:06:44;95784.47;;;16.06;87.40
51449;BME280;37520;46.570;14.268;2022-07-29T02:16:49;95779.47;;;15.94;87.20
51449;BME280;37520;46.570;14.268;2022-07-29T02:26:53;95788.03;;;15.80;89.01
51449;BME280;37520;46.570;14.268;2022-07-29T02:36:56;95779.53;;;15.68;89.13
51449;BME280;37520;46.570;14.268;2022-07-29T02:57:09;95777.44;;;15.60;87.80
51449;BME280;37520;46.570;14.268;2022-07-29T03:07:14;95775.84;;;15.48;88.93
51449;BME280;37520;46.570;14.268;2022-07-29T03:17:17;95780.66;;;15.41;88.15
51449;BME280;37520;46.570;14.268;2022-07-29T03:27:19;95777.22;;;15.30;89.11
51449;BME280;37520;46.570;14.268;2022-07-29T03:37:21;95773.53;;;15.21;89.33
51449;BME280;37520;46.570;14.268;2022-07-29T03:47:25;95762.88;;;15.11;89.01
51449;BME280;37520;46.570;14.268;2022-07-29T03:57:30;95765.00;;;15.14;90.99
51449;BME280;37520;46.570;14.268;2022-07-29T04:07:32;95764.47;;;15.12;91.95
51449;BME280;37520;46.570;14.268;2022-07-29T04:17:33;95766.31;;;15.17;93.02
51449;BME280;37520;46.570;14.268;2022-07-29T04:27:34;95770.56;;;15.28;93.55
51449;BME280;37520;46.570;14.268;2022-07-29T04:37:36;95780.69;;;15.36;93.42
51449;BME280;37520;46.570;14.268;2022-07-29T04:47:37;95790.25;;;15.47;93.29
51449;BME280;37520;46.570;14.268;2022-07-29T04:57:38;95782.72;;;15.65;93.62
51449;BME280;37520;46.570;14.268;2022-07-29T05:07:39;95790.63;;;16.06;93.80
51449;BME280;37520;46.570;14.268;2022-07-29T05:17:41;95774.72;;;16.75;92.22
51449;BME280;37520;46.570;14.268;2022-07-29T05:27:42;95787.06;;;17.65;89.30
51449;BME280;37520;46.570;14.268;2022-07-29T05:37:43;95799.44;;;18.66;82.72
51449;BME280;37520;46.570;14.268;2022-07-29T05:47:44;95795.38;;;19.07;79.60
51449;BME280;37520;46.570;14.268;2022-07-29T05:57:46;95792.38;;;18.95;78.52
51449;BME280;37520;46.570;14.268;2022-07-29T06:07:47;95790.47;;;18.95;78.78
51449;BME280;37520;46.570;14.268;2022-07-29T06:17:48;95794.94;;;18.81;79.22
51449;BME280;37520;46.570;14.268;2022-07-29T06:27:50;95806.91;;;18.89;79.84
51449;BME280;37520;46.570;14.268;2022-07-29T06:37:51;95803.97;;;19.23;78.83
51449;BME280;37520;46.570;14.268;2022-07-29T06:47:53;95809.59;;;19.69;74.66
51449;BME280;37520;46.570;14.268;2022-07-29T06:57:54;95802.97;;;19.94;74.04
51449;BME280;37520;46.570;14.268;2022-07-29T07:07:55;95811.69;;;20.27;73.19
51449;BME280;37520;46.570;14.268;2022-07-29T07:17:57;95799.75;;;21.07;70.51
51449;BME280;37520;46.570;14.268;2022-07-29T07:28:02;95813.94;;;21.53;66.93
51449;BME280;37520;46.570;14.268;2022-07-29T07:38:04;95823.13;;;21.83;65.62
51449;BME280;37520;46.570;14.268;2022-07-29T07:48:07;95818.91;;;23.01;60.93
51449;BME280;37520;46.570;14.268;2022-07-29T07:58:10;95808.97;;;24.14;56.87
51449;BME280;37520;46.570;14.268;2022-07-29T08:08:12;95810.09;;;25.40;53.84
51449;BME280;37520;46.570;14.268;2022-07-29T08:18:13;95815.19;;;26.25;52.00
51449;BME280;37520;46.570;14.268;2022-07-29T08:28:15;95811.78;;;26.28;51.74
51449;BME280;37520;46.570;14.268;2022-07-29T08:38:16;95811.31;;;27.04;48.92
51449;BME280;37520;46.570;14.268;2022-07-29T08:48:20;95812.34;;;27.72;47.31
51449;BME280;37520;46.570;14.268;2022-07-29T08:58:22;95824.69;;;26.97;45.85
51449;BME280;37520;46.570;14.268;2022-07-29T09:08:24;95825.34;;;25.45;49.24
51449;BME280;37520;46.570;14.268;2022-07-29T09:18:37;95823.56;;;25.62;47.68
51449;BME280;37520;46.570;14.268;2022-07-29T09:28:41;95807.44;;;26.77;46.32
51449;BME280;37520;46.570;14.268;2022-07-29T09:38:57;95797.28;;;27.75;43.58
51449;BME280;37520;46.570;14.268;2022-07-29T09:49:10;95793.41;;;28.24;42.48
51449;BME280;37520;46.570;14.268;2022-07-29T09:59:12;95784.81;;;28.57;42.05
51449;BME280;37520;46.570;14.268;2022-07-29T10:09:13;95780.41;;;28.88;41.57
51449;BME280;37520;46.570;14.268;2022-07-29T10:19:15;95776.41;;;29.02;41.31
51449;BME280;37520;46.570;14.268;2022-07-29T10:29:17;95761.28;;;29.24;41.98
51449;BME280;37520;46.570;14.268;2022-07-29T10:50:00;95764.16;;;29.11;41.15
51449;BME280;37520;46.570;14.268;2022-07-29T11:20:42;95725.50;;;29.25;40.60
51449;BME280;37520;46.570;14.268;2022-07-29T11:30:47;95710.78;;;30.27;38.76
51449;BME280;37520;46.570;14.268;2022-07-29T11:41:25;95707.19;;;30.19;37.79
51449;BME280;37520;46.570;14.268;2022-07-29T11:51:27;95705.28;;;30.50;38.44
51449;BME280;37520;46.570;14.268;2022-07-29T12:01:28;95693.25;;;30.54;36.95
51449;BME280;37520;46.570;14.268;2022-07-29T12:11:30;95685.50;;;30.60;37.25
51449;BME280;37520;46.570;14.268;2022-07-29T12:21:57;95687.97;;;29.85;37.98
51449;BME280;37520;46.570;14.268;2022-07-29T12:32:03;95666.56;;;29.83;37.73
51449;BME280;37520;46.570;14.268;2022-07-29T12:42:14;95646.53;;;29.95;37.88
51449;BME280;37520;46.570;14.268;2022-07-29T12:52:30;95641.78;;;30.49;36.42
51449;BME280;37520;46.570;14.268;2022-07-29T13:02:32;95642.22;;;30.55;36.09
51449;BME280;37520;46.570;14.268;2022-07-29T13:12:33;95632.81;;;30.86;36.58
51449;BME280;37520;46.570;14.268;2022-07-29T13:22:38;95614.34;;;31.10;36.55
51449;BME280;37520;46.570;14.268;2022-07-29T13:32:40;95600.88;;;31.39;35.71
51449;BME280;37520;46.570;14.268;2022-07-29T13:42:42;95582.78;;;31.16;35.86
51449;BME280;37520;46.570;14.268;2022-07-29T13:52:43;95564.81;;;30.67;35.72
51449;BME280;37520;46.570;14.268;2022-07-29T14:02:45;95542.44;;;30.54;35.57
51449;BME280;37520;46.570;14.268;2022-07-29T14:12:48;95537.91;;;30.31;35.47
51449;BME280;37520;46.570;14.268;2022-07-29T14:22:49;95531.56;;;30.20;37.58
51449;BME280;37520;46.570;14.268;2022-07-29T14:32:50;95524.78;;;30.44;37.58
51449;BME280;37520;46.570;14.268;2022-07-29T14:42:51;95521.22;;;30.74;35.88
51449;BME280;37520;46.570;14.268;2022-07-29T14:52:53;95509.81;;;30.23;35.67
51449;BME280;37520;46.570;14.268;2022-07-29T15:02:54;95497.34;;;29.58;36.53
51449;BME280;37520;46.570;14.268;2022-07-29T15:12:56;95493.50;;;29.32;37.11
51449;BME280;37520;46.570;14.268;2022-07-29T15:22:58;95482.84;;;29.50;37.14
51449;BME280;37520;46.570;14.268;2022-07-29T15:33:01;95486.50;;;29.62;36.22
51449;BME280;37520;46.570;14.268;2022-07-29T15:43:05;95472.88;;;29.04;38.69
51449;BME280;37520;46.570;14.268;2022-07-29T15:53:07;95471.91;;;28.43;38.60
51449;BME280;37520;46.570;14.268;2022-07-29T16:03:08;95448.56;;;27.99;39.63
51449;BME280;37520;46.570;14.268;2022-07-29T16:13:09;95440.28;;;27.69;40.51
51449;BME280;37520;46.570;14.268;2022-07-29T16:23:10;95453.50;;;27.34;41.36
51449;BME280;37520;46.570;14.268;2022-07-29T16:33:12;95442.78;;;26.86;45.75
51449;BME280;37520;46.570;14.268;2022-07-29T16:43:13;95458.06;;;25.86;53.40
51449;BME280;37520;46.570;14.268;2022-07-29T16:53:14;95555.41;;;24.01;58.29
51449;BME280;37520;46.570;14.268;2022-07-29T17:03:16;95612.47;;;22.18;72.73
51449;BME280;37520;46.570;14.268;2022-07-29T17:13:17;95668.03;;;21.38;78.75
51449;BME280;37520;46.570;14.268;2022-07-29T17:23:18;95659.84;;;21.12;83.85
51449;BME280;37520;46.570;14.268;2022-07-29T17:33:19;95672.13;;;20.96;83.94
51449;BME280;37520;46.570;14.268;2022-07-29T17:43:20;95692.06;;;20.72;88.01
51449;BME280;37520;46.570;14.268;2022-07-29T17:53:22;95717.44;;;20.52;88.23
51449;BME280;37520;46.570;14.268;2022-07-29T18:03:23;95688.88;;;20.33;88.27
51449;BME280;37520;46.570;14.268;2022-07-29T18:13:24;95674.81;;;20.27;89.36
51449;BME280;37520;46.570;14.268;2022-07-29T18:23:26;95656.72;;;20.19;89.78
51449;BME280;37520;46.570;14.268;2022-07-29T18:33:29;95669.03;;;19.97;87.82
51449;BME280;37520;46.570;14.268;2022-07-29T18:43:32;95670.34;;;19.58;86.67
51449;BME280;37520;46.570;14.268;2022-07-29T18:53:33;95656.84;;;19.22;85.85
51449;BME280;37520;46.570;14.268;2022-07-29T19:03:35;95648.16;;;18.83;86.62
51449;BME280;37520;46.570;14.268;2022-07-29T19:13:36;95667.13;;;18.53;86.95
51449;BME280;37520;46.570;14.268;2022-07-29T19:23:37;95684.91;;;18.30;87.85
51449;BME280;37520;46.570;14.268;2022-07-29T19:33:39;95703.91;;;18.10;88.71
51449;BME280;37520;46.570;14.268;2022-07-29T19:43:40;95713.16;;;17.98;92.21
51449;BME280;37520;46.570;14.268;2022-07-29T19:53:41;95726.47;;;18.03;94.24
51449;BME280;37520;46.570;14.268;2022-07-29T20:03:43;95721.56;;;18.11;94.94
51449;BME280;37520;46.570;14.268;2022-07-29T20:13:44;95721.47;;;18.16;95.19
51449;BME280;37520;46.570;14.268;2022-07-29T20:23:46;95701.75;;;18.12;94.48
51449;BME280;37520;46.570;14.268;2022-07-29T20:33:47;95697.59;;;18.00;95.11
51449;BME280;37520;46.570;14.268;2022-07-29T20:43:49;95704.38;;;17.93;95.58
51449;BME280;37520;46.570;14.268;2022-07-29T20:53:50;95713.59;;;17.81;96.43
51449;BME280;37520;46.570;14.268;2022-07-29T21:03:51;95711.84;;;17.71;96.54
51449;BME280;37520;46.570;14.268;2022-07-29T21:13:52;95709.56;;;17.60;96.85
51449;BME280;37520;46.570;14.268;2022-07-29T21:23:54;95700.00;;;17.59;96.73
51449;BME280;37520;46.570;14.268;2022-07-29T21:33:55;95728.63;;;17.53;99.12
51449;BME280;37520;46.570;14.268;2022-07-29T21:43:56;95721.63;;;17.57;97.35
51449;BME280;37520;46.570;14.268;2022-07-29T21:53:57;95735.06;;;17.52;97.89
51449;BME280;37520;46.570;14.268;2022-07-29T22:03:59;95712.44;;;17.44;98.86
51449;BME280;37520;46.570;14.268;2022-07-29T22:14:00;95712.16;;;17.46;99.40
51449;BME280;37520;46.570;14.268;2022-07-29T22:24:01;95702.59;;;17.39;98.28
51449;BME280;37520;46.570;14.268;2022-07-29T22:34:02;95693.34;;;17.32;100.00
51449;BME280;37520;46.570;14.268;2022-07-29T22:55:03;95680.28;;;17.30;100.00
51449;BME280;37520;46.570;14.268;2022-07-29T23:05:05;95677.59;;;17.30;100.00
51449;BME280;37520;46.570;14.268;2022-07-29T23:15:06;95678.09;;;17.32;100.00
51449;BME280;37520;46.570;14.268;2022-07-29T23:25:08;95681.56;;;17.33;100.00
51449;BME280;37520;46.570;14.268;2022-07-29T23:35:09;95675.94;;;17.34;100.00
51449;BME280;37520;46.570;14.268;2022-07-29T23:45:11;95674.34;;;17.33;100.00
51449;BME280;37520;46.570;14.268;2022-07-29T23:55:14;95665.31;;;17.29;100.00
